Time;durP1;ratioP1;P1;durP2;ratioP2;P2;SDS_P1;SDS_P2;PMS_P1;PMS_P2;Temp;Humidity;BMP_temperature;BMP_pressure;BME280_temperature;BME280_humidity;BME280_pressure;Samples;Min_cycle;Max_cycle;Signal;HPM_P1;HPM_P2
2023/01/08 00:00:47;;;;;;;11.68;2.60;;;;;;;;;;4970403;28;20113;-82
2023/01/08 00:03:15;;;;;;;13.35;2.40;;;;;;;;;;4987838;28;20161;-83
2023/01/08 00:05:41;;;;;;;8.80;1.98;;;;;;;;;;4987445;28;20046;-84
2023/01/08 00:08:08;;;;;;;16.35;3.72;;;;;;;;;;4988718;28;20041;-80
2023/01/08 00:10:36;;;;;;;10.80;2.58;;;;;;;;;;4989492;28;20169;-80
2023/01/08 00:13:03;;;;;;;10.38;2.25;;;;;;;;;;4972006;28;20117;-82
2023/01/08 00:15:29;;;;;;;9.07;2.17;;;;;;;;;;4986191;28;20039;-80
2023/01/08 00:17:56;;;;;;;11.95;2.28;;;;;;;;;;4987273;28;20092;-83
2023/01/08 00:20:22;;;;;;;12.82;2.60;;;;;;;;;;4973917;28;20076;-83
2023/01/08 00:22:49;;;;;;;8.98;1.98;;;;;;;;;;4987548;28;20027;-83
2023/01/08 00:25:15;;;;;;;9.07;1.83;;;;;;;;;;4989550;28;20026;-83
2023/01/08 00:27:41;;;;;;;13.77;2.53;;;;;;;;;;4989925;28;20044;-82
2023/01/08 00:30:08;;;;;;;13.07;2.65;;;;;;;;;;4990810;28;20042;-83
2023/01/08 00:32:34;;;;;;;11.57;2.28;;;;;;;;;;4985871;28;20058;-81
2023/01/08 00:35:00;;;;;;;9.85;3.47;;;;;;;;;;4986405;28;20088;-82
2023/01/08 00:37:27;;;;;;;11.70;2.42;;;;;;;;;;4987451;28;20027;-82
2023/01/08 00:39:53;;;;;;;9.00;2.72;;;;;;;;;;4984354;28;20030;-82
2023/01/08 00:42:20;;;;;;;10.68;4.00;;;;;;;;;;4985489;28;20113;-82
2023/01/08 00:44:46;;;;;;;10.38;4.10;;;;;;;;;;4988419;28;20022;-82
2023/01/08 00:47:13;;;;;;;10.68;2.92;;;;;;;;;;4990643;28;20030;-81
2023/01/08 00:49:39;;;;;;;13.82;3.55;;;;;;;;;;4989929;28;20045;-82
2023/01/08 00:52:05;;;;;;;9.85;3.42;;;;;;;;;;4971491;28;20073;-82
2023/01/08 00:54:31;;;;;;;10.98;3.63;;;;;;;;;;4988768;28;20038;-81
2023/01/08 00:56:57;;;;;;;7.57;3.28;;;;;;;;;;4994222;28;20053;-80
2023/01/08 00:59:24;;;;;;;10.02;3.88;;;;;;;;;;4993345;28;20033;-81
2023/01/08 01:01:53;;;;;;;9.50;4.07;;;;;;;;;;4997939;28;20214;-80
2023/01/08 01:04:19;;;;;;;13.60;4.88;;;;;;;;;;4991757;28;20033;-82
2023/01/08 01:06:45;;;;;;;10.68;4.22;;;;;;;;;;4996326;28;20129;-81
2023/01/08 01:09:11;;;;;;;10.95;5.07;;;;;;;;;;5002651;28;20022;-81
2023/01/08 01:11:37;;;;;;;10.38;4.85;;;;;;;;;;5003624;28;20053;-82
2023/01/08 01:14:04;;;;;;;10.50;5.22;;;;;;;;;;5005575;28;20278;-80
2023/01/08 01:16:30;;;;;;;11.80;5.38;;;;;;;;;;5004689;28;20057;-81
2023/01/08 01:18:57;;;;;;;11.23;5.47;;;;;;;;;;4993869;28;20026;-81
2023/01/08 01:21:24;;;;;;;14.95;5.43;;;;;;;;;;4979306;28;20716;-81
2023/01/08 01:23:52;;;;;;;11.88;6.75;;;;;;;;;;4997349;28;20110;-81
2023/01/08 01:26:19;;;;;;;17.70;6.15;;;;;;;;;;5020017;28;20140;-81
2023/01/08 01:28:53;;;;;;;10.80;5.80;;;;;;;;;;5006752;28;20070;-82
2023/01/08 01:31:19;;;;;;;16.73;5.97;;;;;;;;;;4996749;28;20034;-81
2023/01/08 01:33:46;;;;;;;14.45;5.47;;;;;;;;;;5003425;28;20030;-80
2023/01/08 01:36:13;;;;;;;12.95;4.78;;;;;;;;;;5001113;28;20046;-80
2023/01/08 01:38:43;;;;;;;13.75;4.65;;;;;;;;;;5000430;28;20038;-82
2023/01/08 01:41:18;;;;;;;11.90;4.53;;;;;;;;;;5015423;28;20034;-80
2023/01/08 01:43:45;;;;;;;16.73;4.43;;;;;;;;;;5004434;28;20030;-82
2023/01/08 01:46:17;;;;;;;10.48;3.25;;;;;;;;;;5000754;28;20045;-82
2023/01/08 01:48:44;;;;;;;7.90;2.70;;;;;;;;;;4999992;28;20383;-81
2023/01/08 01:51:10;;;;;;;5.15;2.15;;;;;;;;;;4993125;28;20033;-82
2023/01/08 01:53:37;;;;;;;7.32;2.30;;;;;;;;;;5015366;28;20025;-81
2023/01/08 01:56:04;;;;;;;8.32;2.78;;;;;;;;;;4997301;28;20034;-81
2023/01/08 01:58:31;;;;;;;6.97;1.95;;;;;;;;;;4995793;28;20478;-81
2023/01/08 02:01:00;;;;;;;7.25;1.83;;;;;;;;;;4997546;28;20026;-81
2023/01/08 02:03:29;;;;;;;7.75;2.13;;;;;;;;;;4994993;28;20068;-80
2023/01/08 02:06:12;;;;;;;9.98;2.63;;;;;;;;;;4989398;28;20114;-79
2023/01/08 02:09:04;;;;;;;6.05;2.10;;;;;;;;;;5005415;28;20097;-82
2023/01/08 02:11:30;;;;;;;5.35;1.63;;;;;;;;;;4986092;28;20153;-81
2023/01/08 02:14:02;;;;;;;8.50;3.03;;;;;;;;;;4986693;28;20026;-81
2023/01/08 02:16:28;;;;;;;5.97;1.80;;;;;;;;;;4985316;28;20608;-81
2023/01/08 02:19:01;;;;;;;9.05;2.67;;;;;;;;;;4986503;28;20022;-81
2023/01/08 02:21:36;;;;;;;4.20;1.80;;;;;;;;;;4984236;28;20037;-81
2023/01/08 02:24:16;;;;;;;5.47;1.77;;;;;;;;;;4985557;28;20077;-80
2023/01/08 02:26:45;;;;;;;5.32;2.00;;;;;;;;;;4986691;28;20030;-82
2023/01/08 02:29:16;;;;;;;6.95;2.08;;;;;;;;;;4990816;28;20077;-81
2023/01/08 02:31:44;;;;;;;7.43;2.65;;;;;;;;;;4984825;28;20022;-81
2023/01/08 02:34:11;;;;;;;7.82;2.35;;;;;;;;;;4985025;28;20031;-80
2023/01/08 02:36:38;;;;;;;8.80;2.65;;;;;;;;;;4986798;28;20039;-81
2023/01/08 02:39:10;;;;;;;7.80;2.25;;;;;;;;;;4983831;28;20037;-80
2023/01/08 02:41:54;;;;;;;6.30;2.40;;;;;;;;;;4986152;28;20022;-82
2023/01/08 02:44:22;;;;;;;5.30;2.60;;;;;;;;;;4984003;28;20046;-81
2023/01/08 02:46:50;;;;;;;8.98;3.15;;;;;;;;;;4985551;28;20066;-79
2023/01/08 02:49:16;;;;;;;6.35;2.10;;;;;;;;;;4985146;28;20030;-81
2023/01/08 02:51:45;;;;;;;5.38;2.33;;;;;;;;;;4985102;28;20050;-81
2023/01/08 02:54:14;;;;;;;5.88;2.75;;;;;;;;;;4986726;28;20172;-79
2023/01/08 02:56:43;;;;;;;5.22;2.55;;;;;;;;;;4990056;28;20026;-79
2023/01/08 02:59:10;;;;;;;6.28;2.30;;;;;;;;;;4985284;28;20046;-80
2023/01/08 03:01:37;;;;;;;10.13;2.90;;;;;;;;;;4988771;28;20034;-81
2023/01/08 03:04:06;;;;;;;8.10;3.50;;;;;;;;;;4991041;28;20043;-81
2023/01/08 03:06:32;;;;;;;7.10;2.92;;;;;;;;;;4999120;28;20038;-81
2023/01/08 03:08:59;;;;;;;11.02;3.72;;;;;;;;;;4993824;28;20045;-81
2023/01/08 03:11:30;;;;;;;7.68;3.03;;;;;;;;;;4989644;28;20455;-81
2023/01/08 03:13:59;;;;;;;7.75;2.30;;;;;;;;;;4996737;28;20037;-81
2023/01/08 03:16:29;;;;;;;7.40;3.15;;;;;;;;;;4996758;28;20042;-81
2023/01/08 03:18:58;;;;;;;9.27;3.10;;;;;;;;;;4996366;28;20035;-82
2023/01/08 03:21:24;;;;;;;7.10;2.28;;;;;;;;;;4996678;28;20062;-81
2023/01/08 03:23:50;;;;;;;7.45;2.28;;;;;;;;;;5015920;28;20057;-81
2023/01/08 03:26:19;;;;;;;9.80;3.03;;;;;;;;;;5006981;28;20030;-81
2023/01/08 03:28:47;;;;;;;7.07;2.35;;;;;;;;;;4983887;28;20514;-81
2023/01/08 03:31:15;;;;;;;11.32;2.53;;;;;;;;;;5001570;28;20050;-81
2023/01/08 03:33:42;;;;;;;8.48;2.28;;;;;;;;;;5004074;28;20027;-79
2023/01/08 03:36:09;;;;;;;5.70;2.28;;;;;;;;;;5008424;28;20077;-80
2023/01/08 03:38:41;;;;;;;7.22;2.10;;;;;;;;;;5000392;28;20047;-82
2023/01/08 03:41:12;;;;;;;10.02;2.35;;;;;;;;;;4999571;28;20128;-81
2023/01/08 03:43:38;;;;;;;;;;;;;;;;;;5000158;28;20018;-79
2023/01/08 03:46:08;;;;;;;10.80;3.00;;;;;;;;;;4995695;28;19941;-82
2023/01/08 03:48:35;;;;;;;8.25;2.70;;;;;;;;;;4993638;28;20065;-82
2023/01/08 03:51:01;;;;;;;8.02;2.65;;;;;;;;;;4993342;28;20030;-81
2023/01/08 03:53:27;;;;;;;7.82;3.53;;;;;;;;;;4988747;28;20030;-82
2023/01/08 03:55:54;;;;;;;12.18;3.70;;;;;;;;;;4988878;28;20323;-82
2023/01/08 03:58:20;;;;;;;9.48;3.70;;;;;;;;;;4990454;28;20121;-81
2023/01/08 04:00:46;;;;;;;7.68;3.83;;;;;;;;;;4988375;28;20042;-80
2023/01/08 04:03:12;;;;;;;8.90;3.17;;;;;;;;;;4985298;28;20031;-81
2023/01/08 04:05:38;;;;;;;10.05;3.63;;;;;;;;;;4989222;28;20312;-80
2023/01/08 04:08:05;;;;;;;12.13;3.78;;;;;;;;;;4990351;28;20030;-82
2023/01/08 04:10:31;;;;;;;7.50;3.28;;;;;;;;;;4986782;28;20081;-80
2023/01/08 04:12:57;;;;;;;9.82;3.22;;;;;;;;;;4972164;28;20035;-82
2023/01/08 04:15:23;;;;;;;9.45;3.10;;;;;;;;;;4988540;28;20034;-81
2023/01/08 04:17:49;;;;;;;7.80;3.55;;;;;;;;;;4990233;28;20093;-81
2023/01/08 04:20:16;;;;;;;10.27;3.35;;;;;;;;;;4985352;28;20034;-80
2023/01/08 04:22:42;;;;;;;13.55;4.57;;;;;;;;;;4988297;28;20729;-82
2023/01/08 04:25:08;;;;;;;9.98;3.83;;;;;;;;;;4990580;28;20065;-81
2023/01/08 04:27:34;;;;;;;8.20;3.33;;;;;;;;;;4991284;28;20041;-81
2023/01/08 04:30:00;;;;;;;6.95;3.30;;;;;;;;;;4989914;28;20033;-81
2023/01/08 04:32:27;;;;;;;9.63;3.40;;;;;;;;;;4989561;28;20104;-80
2023/01/08 04:34:53;;;;;;;9.00;4.15;;;;;;;;;;4994573;28;20058;-80
2023/01/08 04:37:19;;;;;;;8.20;4.15;;;;;;;;;;4997590;28;20404;-80
2023/01/08 04:39:45;;;;;;;15.77;4.32;;;;;;;;;;4994793;28;20042;-80
2023/01/08 04:42:11;;;;;;;13.50;3.70;;;;;;;;;;4997837;28;20358;-80
2023/01/08 04:44:37;;;;;;;8.48;3.33;;;;;;;;;;5000706;28;20030;-81
2023/01/08 04:47:03;;;;;;;7.50;3.38;;;;;;;;;;5000447;28;20387;-81
2023/01/08 04:49:30;;;;;;;9.13;2.60;;;;;;;;;;4999453;28;20039;-81
2023/01/08 04:51:56;;;;;;;5.35;2.22;;;;;;;;;;4989032;28;20090;-80
2023/01/08 04:54:22;;;;;;;10.55;2.70;;;;;;;;;;5002379;28;20026;-80
2023/01/08 04:56:51;;;;;;;11.43;3.10;;;;;;;;;;5004717;28;20086;-80
2023/01/08 04:59:17;;;;;;;10.77;2.30;;;;;;;;;;5003569;28;20038;-80
2023/01/08 05:01:44;;;;;;;7.82;2.42;;;;;;;;;;5002083;28;20038;-80
2023/01/08 05:04:11;;;;;;;7.35;2.47;;;;;;;;;;4999868;28;20030;-81
2023/01/08 05:06:37;;;;;;;12.60;3.10;;;;;;;;;;4999472;28;20037;-80
2023/01/08 05:09:03;;;;;;;7.43;2.03;;;;;;;;;;4995821;28;20104;-81
2023/01/08 05:11:29;;;;;;;10.27;2.92;;;;;;;;;;4976469;28;20041;-80
2023/01/08 05:13:55;;;;;;;10.00;2.58;;;;;;;;;;4990293;28;20483;-79
2023/01/08 05:16:22;;;;;;;9.68;2.17;;;;;;;;;;4972950;28;20182;-80
2023/01/08 05:18:48;;;;;;;9.77;2.75;;;;;;;;;;4995842;28;20036;-80
2023/01/08 05:21:15;;;;;;;6.70;2.25;;;;;;;;;;4985525;28;20204;-80
2023/01/08 05:23:44;;;;;;;8.02;2.45;;;;;;;;;;4990314;28;20041;-80
2023/01/08 05:26:10;;;;;;;7.15;2.85;;;;;;;;;;5000713;28;20038;-79
2023/01/08 05:28:36;;;;;;;10.82;2.08;;;;;;;;;;4981694;28;20033;-81
2023/01/08 05:31:02;;;;;;;6.20;1.65;;;;;;;;;;4991006;28;20143;-80
2023/01/08 05:33:28;;;;;;;10.93;2.60;;;;;;;;;;4988858;28;20117;-80
2023/01/08 05:35:55;;;;;;;7.28;2.58;;;;;;;;;;4988850;28;20076;-80
2023/01/08 05:38:21;;;;;;;10.85;2.22;;;;;;;;;;4986297;28;20031;-81
2023/01/08 05:40:47;;;;;;;13.02;2.97;;;;;;;;;;4985183;28;20498;-80
2023/01/08 05:43:14;;;;;;;15.30;3.35;;;;;;;;;;4988186;28;20045;-81
2023/01/08 05:45:40;;;;;;;10.50;2.83;;;;;;;;;;4985680;28;20035;-80
2023/01/08 05:48:06;;;;;;;13.65;3.78;;;;;;;;;;4971137;28;20369;-80
2023/01/08 05:50:32;;;;;;;9.20;2.60;;;;;;;;;;4986024;28;20065;-80
2023/01/08 05:52:58;;;;;;;12.02;2.78;;;;;;;;;;4991624;28;20427;-80
2023/01/08 05:55:25;;;;;;;12.63;2.75;;;;;;;;;;4974137;28;20188;-80
2023/01/08 05:57:51;;;;;;;8.68;3.00;;;;;;;;;;4992245;28;20069;-80
2023/01/08 06:00:17;;;;;;;11.32;3.05;;;;;;;;;;4994212;28;20026;-79
2023/01/08 06:02:46;;;;;;;8.32;2.88;;;;;;;;;;4994229;28;20053;-80
2023/01/08 06:05:13;;;;;;;10.80;2.70;;;;;;;;;;4989125;28;20179;-79
2023/01/08 06:07:39;;;;;;;14.05;3.58;;;;;;;;;;5000816;28;20049;-80
2023/01/08 06:10:05;;;;;;;14.30;2.95;;;;;;;;;;4998942;28;20444;-80
2023/01/08 06:12:35;;;;;;;10.38;3.08;;;;;;;;;;4999968;28;20086;-80
2023/01/08 06:15:01;;;;;;;13.48;3.47;;;;;;;;;;5003767;28;20065;-80
2023/01/08 06:17:27;;;;;;;10.02;3.50;;;;;;;;;;4968641;28;20026;-80
2023/01/08 06:19:55;;;;;;;14.57;2.72;;;;;;;;;;5010300;28;20031;-81
2023/01/08 06:22:21;;;;;;;11.77;2.80;;;;;;;;;;4990680;28;20015;-81
2023/01/08 06:24:47;;;;;;;12.75;3.50;;;;;;;;;;4998343;28;20082;-80
2023/01/08 06:27:14;;;;;;;13.27;3.55;;;;;;;;;;5013398;28;20035;-80
2023/01/08 06:29:40;;;;;;;10.73;3.00;;;;;;;;;;4993086;28;20074;-80
2023/01/08 06:32:06;;;;;;;13.15;3.70;;;;;;;;;;4992980;28;20104;-80
2023/01/08 06:34:32;;;;;;;9.65;3.35;;;;;;;;;;4987734;28;20023;-80
2023/01/08 06:36:58;;;;;;;15.70;3.47;;;;;;;;;;4985817;28;20421;-80
2023/01/08 06:39:24;;;;;;;12.85;4.07;;;;;;;;;;4982465;28;20033;-80
2023/01/08 06:41:50;;;;;;;15.10;4.25;;;;;;;;;;4984686;28;20039;-79
2023/01/08 06:44:17;;;;;;;11.88;3.70;;;;;;;;;;4987065;28;20126;-80
2023/01/08 06:46:43;;;;;;;15.02;3.90;;;;;;;;;;4987724;28;20473;-80
2023/01/08 06:49:09;;;;;;;13.85;4.10;;;;;;;;;;4986333;28;20466;-80
2023/01/08 06:51:36;;;;;;;14.73;4.15;;;;;;;;;;4985808;28;20073;-80
2023/01/08 06:54:02;;;;;;;11.05;3.60;;;;;;;;;;4986112;28;20135;-79
2023/01/08 06:56:28;;;;;;;14.35;3.95;;;;;;;;;;5001454;28;20081;-80
2023/01/08 06:58:55;;;;;;;12.82;3.90;;;;;;;;;;4983935;28;20042;-80
2023/01/08 07:01:21;;;;;;;12.88;3.65;;;;;;;;;;4987335;28;20113;-80
2023/01/08 07:04:07;;;;;;;8.13;3.60;;;;;;;;;;4987346;28;20147;-80
2023/01/08 07:06:34;;;;;;;14.25;3.72;;;;;;;;;;4986115;28;20110;-80
2023/01/08 07:09:00;;;;;;;9.05;3.45;;;;;;;;;;4969745;28;20069;-79
2023/01/08 07:11:26;;;;;;;14.15;4.60;;;;;;;;;;4974945;28;20049;-80
2023/01/08 07:13:52;;;;;;;10.57;3.45;;;;;;;;;;4992406;28;20030;-79
2023/01/08 07:16:19;;;;;;;13.20;3.85;;;;;;;;;;4988377;28;20045;-79
2023/01/08 07:18:45;;;;;;;13.10;3.28;;;;;;;;;;4970646;28;20046;-80
2023/01/08 07:21:12;;;;;;;15.88;3.05;;;;;;;;;;4997163;28;20177;-79
2023/01/08 07:23:38;;;;;;;12.60;3.00;;;;;;;;;;4986473;28;20038;-80
2023/01/08 07:26:06;;;;;;;12.75;3.05;;;;;;;;;;4996852;28;20029;-80
2023/01/08 07:28:32;;;;;;;11.68;3.08;;;;;;;;;;4997774;28;20041;-79
2023/01/08 07:31:02;;;;;;;10.30;3.45;;;;;;;;;;4998211;28;20043;-80
2023/01/08 07:33:28;;;;;;;22.25;3.58;;;;;;;;;;4997217;28;20030;-80
2023/01/08 07:35:55;;;;;;;12.80;3.30;;;;;;;;;;4997352;28;20039;-79
2023/01/08 07:38:21;;;;;;;16.55;3.58;;;;;;;;;;5001517;28;20030;-80
2023/01/08 07:40:48;;;;;;;17.48;3.75;;;;;;;;;;4995599;28;20039;-80
2023/01/08 07:43:14;;;;;;;10.80;3.10;;;;;;;;;;5001429;28;20030;-82
2023/01/08 07:45:41;;;;;;;15.20;2.60;;;;;;;;;;4999807;28;20026;-81
2023/01/08 07:48:09;;;;;;;14.10;3.53;;;;;;;;;;5002408;28;20030;-83
2023/01/08 07:50:37;;;;;;;11.73;3.10;;;;;;;;;;5001079;28;20030;-79
2023/01/08 07:53:03;;;;;;;11.30;3.15;;;;;;;;;;4996307;28;20022;-81
2023/01/08 07:55:30;;;;;;;11.27;2.55;;;;;;;;;;5002787;28;20093;-81
2023/01/08 07:57:57;;;;;;;20.17;3.55;;;;;;;;;;5000752;28;20078;-83
2023/01/08 08:00:24;;;;;;;15.07;3.60;;;;;;;;;;5002082;28;20395;-83
2023/01/08 08:02:50;;;;;;;11.60;3.30;;;;;;;;;;5005941;28;20064;-84
2023/01/08 08:05:19;;;;;;;14.25;3.17;;;;;;;;;;5000181;28;20030;-86
2023/01/08 08:07:47;;;;;;;9.50;2.80;;;;;;;;;;5002631;28;20420;-85
2023/01/08 08:10:13;;;;;;;18.38;3.13;;;;;;;;;;5005150;28;20049;-83
2023/01/08 08:12:39;;;;;;;17.35;2.78;;;;;;;;;;4983097;28;20048;-84
2023/01/08 08:15:07;;;;;;;14.27;2.40;;;;;;;;;;4983721;28;20043;-83
2023/01/08 08:17:33;;;;;;;13.45;2.88;;;;;;;;;;5002181;28;20018;-83
2023/01/08 08:19:59;;;;;;;9.98;2.90;;;;;;;;;;5005001;28;20030;-85
2023/01/08 08:22:26;;;;;;;9.05;2.45;;;;;;;;;;5004717;28;20027;-84
2023/01/08 08:24:52;;;;;;;18.52;2.95;;;;;;;;;;5005792;28;20018;-84
2023/01/08 08:27:18;;;;;;;11.00;3.75;;;;;;;;;;5004379;28;20102;-86
2023/01/08 08:29:44;;;;;;;15.30;2.80;;;;;;;;;;5003416;28;20064;-83
2023/01/08 08:32:10;;;;;;;12.43;2.60;;;;;;;;;;5001684;28;20059;-83
2023/01/08 08:34:36;;;;;;;16.55;2.60;;;;;;;;;;5003378;28;20038;-84
2023/01/08 08:37:03;;;;;;;14.20;2.80;;;;;;;;;;5002516;28;20042;-85
2023/01/08 08:39:29;;;;;;;16.70;3.33;;;;;;;;;;4999035;28;20035;-80
2023/01/08 08:41:55;;;;;;;13.25;3.10;;;;;;;;;;4999154;28;20242;-83
2023/01/08 08:44:21;;;;;;;13.27;2.45;;;;;;;;;;5001361;28;20070;-83
2023/01/08 08:46:48;;;;;;;18.27;3.35;;;;;;;;;;4994776;28;20142;-83
2023/01/08 08:49:14;;;;;;;17.15;3.03;;;;;;;;;;4997170;28;20010;-81
2023/01/08 08:51:40;;;;;;;24.90;4.47;;;;;;;;;;4998738;28;20146;-81
2023/01/08 08:54:06;;;;;;;19.88;3.05;;;;;;;;;;4999088;28;20072;-83
2023/01/08 08:56:32;;;;;;;15.55;2.10;;;;;;;;;;4996108;28;20491;-83
2023/01/08 08:58:58;;;;;;;18.33;2.30;;;;;;;;;;4998179;28;20046;-83
2023/01/08 09:01:24;;;;;;;18.67;4.28;;;;;;;;;;4990119;28;20034;-81
2023/01/08 09:03:50;;;;;;;16.58;3.15;;;;;;;;;;4975438;28;20039;-83
2023/01/08 09:06:17;;;;;;;13.63;2.78;;;;;;;;;;4996037;28;20058;-81
2023/01/08 09:08:43;;;;;;;16.15;2.45;;;;;;;;;;4990586;28;20057;-81
2023/01/08 09:11:09;;;;;;;21.17;2.90;;;;;;;;;;4992752;28;20022;-81
2023/01/08 09:13:38;;;;;;;19.20;3.05;;;;;;;;;;4989684;28;20018;-81
2023/01/08 09:16:05;;;;;;;13.30;2.10;;;;;;;;;;4990315;28;20161;-82
2023/01/08 09:18:31;;;;;;;14.07;3.10;;;;;;;;;;4990692;28;20034;-80
2023/01/08 09:20:57;;;;;;;13.48;2.22;;;;;;;;;;4972322;28;20520;-84
2023/01/08 09:23:25;;;;;;;17.60;3.40;;;;;;;;;;4972804;28;20034;-84
2023/01/08 09:25:58;;;;;;;14.65;2.97;;;;;;;;;;4970134;28;20045;-84
2023/01/08 09:28:24;;;;;;;15.30;2.28;;;;;;;;;;4971618;28;20038;-83
2023/01/08 09:30:50;;;;;;;16.38;3.28;;;;;;;;;;4986619;28;20053;-83
2023/01/08 09:33:16;;;;;;;13.65;2.30;;;;;;;;;;4969212;28;20038;-84
2023/01/08 09:35:43;;;;;;;17.95;2.75;;;;;;;;;;4989228;28;20053;-83
2023/01/08 09:38:09;;;;;;;12.50;2.95;;;;;;;;;;4987752;28;20399;-83
2023/01/08 09:40:56;;;;;;;15.02;3.13;;;;;;;;;;4987386;28;20073;-84
2023/01/08 09:43:24;;;;;;;22.20;4.68;;;;;;;;;;4997760;28;20026;-84
2023/01/08 09:45:52;;;;;;;15.38;3.08;;;;;;;;;;4987802;28;20034;-84
2023/01/08 09:48:19;;;;;;;16.02;2.63;;;;;;;;;;4987104;28;20022;-82
2023/01/08 09:50:47;;;;;;;15.13;3.35;;;;;;;;;;4987892;28;20030;-83
2023/01/08 09:53:14;;;;;;;13.43;3.53;;;;;;;;;;4988392;28;20065;-82
2023/01/08 09:55:41;;;;;;;11.05;2.45;;;;;;;;;;4987877;28;20526;-84
2023/01/08 09:58:15;;;;;;;24.77;4.82;;;;;;;;;;4982061;28;20064;-81
2023/01/08 10:00:42;;;;;;;12.73;2.88;;;;;;;;;;4988552;28;20058;-82
2023/01/08 10:03:10;;;;;;;17.45;3.30;;;;;;;;;;4986519;28;20345;-84
2023/01/08 10:05:36;;;;;;;28.00;4.90;;;;;;;;;;4984793;28;20658;-83
2023/01/08 10:08:03;;;;;;;14.85;3.17;;;;;;;;;;4987085;28;20043;-81
2023/01/08 10:10:31;;;;;;;16.08;3.63;;;;;;;;;;4983298;28;20136;-83
2023/01/08 10:12:58;;;;;;;15.20;4.00;;;;;;;;;;4988595;28;20027;-79
2023/01/08 10:15:24;;;;;;;16.08;3.40;;;;;;;;;;4984016;28;20113;-81
2023/01/08 10:18:10;;;;;;;11.63;2.88;;;;;;;;;;4985477;28;20026;-85
2023/01/08 10:20:38;;;;;;;14.70;3.05;;;;;;;;;;4989977;28;20478;-90
2023/01/08 10:23:17;;;;;;;14.15;3.55;;;;;;;;;;4988703;28;20077;-84
2023/01/08 10:26:02;;;;;;;15.20;3.08;;;;;;;;;;4989313;28;20044;-84
2023/01/08 10:28:34;;;;;;;17.63;2.95;;;;;;;;;;4987719;28;20093;-79
2023/01/08 10:31:15;;;;;;;18.48;3.67;;;;;;;;;;4985567;28;20026;-80
2023/01/08 10:33:46;;;;;;;16.13;4.47;;;;;;;;;;4987588;28;20070;-84
2023/01/08 10:36:14;;;;;;;13.57;3.13;;;;;;;;;;4985350;28;20026;-82
2023/01/08 10:38:50;;;;;;;19.98;3.40;;;;;;;;;;4990215;28;20198;-83
2023/01/08 10:41:17;;;;;;;16.77;3.00;;;;;;;;;;4987381;28;20022;-84
2023/01/08 10:43:52;;;;;;;17.70;3.13;;;;;;;;;;4988982;28;20031;-84
2023/01/08 10:46:39;;;;;;;14.75;3.05;;;;;;;;;;4994093;28;20072;-83
2023/01/08 10:49:06;;;;;;;14.13;3.03;;;;;;;;;;4997353;28;20038;-84
2023/01/08 10:51:33;;;;;;;14.15;2.78;;;;;;;;;;4994489;28;20092;-85
2023/01/08 10:54:00;;;;;;;15.25;3.05;;;;;;;;;;4994817;28;20049;-81
2023/01/08 10:56:27;;;;;;;15.95;3.75;;;;;;;;;;4989081;28;20041;-84
2023/01/08 10:58:54;;;;;;;17.80;3.33;;;;;;;;;;4986609;28;20035;-84
2023/01/08 11:01:20;;;;;;;11.02;2.67;;;;;;;;;;4998544;28;20051;-85
2023/01/08 11:03:50;;;;;;;15.98;2.60;;;;;;;;;;5006883;28;20046;-83
2023/01/08 11:06:20;;;;;;;15.32;3.30;;;;;;;;;;5005404;28;20137;-86
2023/01/08 11:08:50;;;;;;;13.13;2.65;;;;;;;;;;5008492;28;20030;-84
2023/01/08 11:11:16;;;;;;;11.23;2.60;;;;;;;;;;4987314;28;20042;-88
2023/01/08 11:13:51;;;;;;;9.55;2.40;;;;;;;;;;4986985;28;20400;-84
2023/01/08 11:16:17;;;;;;;11.32;3.47;;;;;;;;;;4989158;28;20070;-83
2023/01/08 11:18:46;;;;;;;10.63;2.63;;;;;;;;;;4995840;28;20456;-78
2023/01/08 11:21:25;;;;;;;13.70;2.70;;;;;;;;;;4995874;28;20048;-83
2023/01/08 11:24:11;;;;;;;10.55;3.55;;;;;;;;;;4991008;28;20048;-84
2023/01/08 11:26:39;;;;;;;11.02;3.00;;;;;;;;;;4986808;28;20026;-83
2023/01/08 11:29:10;;;;;;;10.85;2.83;;;;;;;;;;5002474;28;20030;-84
2023/01/08 11:31:36;;;;;;;13.18;2.50;;;;;;;;;;4984822;28;20456;-83
2023/01/08 11:34:11;;;;;;;11.77;2.65;;;;;;;;;;4989625;28;20030;-82
2023/01/08 11:36:42;;;;;;;12.52;2.65;;;;;;;;;;4968050;28;20034;-83
2023/01/08 11:39:09;;;;;;;12.07;2.50;;;;;;;;;;4985112;28;20121;-82
2023/01/08 11:41:44;;;;;;;14.60;3.88;;;;;;;;;;4987263;28;20022;-80
2023/01/08 11:44:29;;;;;;;10.73;3.30;;;;;;;;;;4986377;28;20029;-83
2023/01/08 11:47:14;;;;;;;12.25;2.33;;;;;;;;;;4987840;28;20034;-85
2023/01/08 11:49:46;;;;;;;10.88;2.90;;;;;;;;;;4984455;28;20031;-83
2023/01/08 11:52:29;;;;;;;8.55;2.50;;;;;;;;;;4988466;28;20031;-85
2023/01/08 11:55:15;;;;;;;9.77;3.00;;;;;;;;;;4986311;28;20212;-84
2023/01/08 11:57:42;;;;;;;11.77;2.97;;;;;;;;;;4981605;28;20165;-86
2023/01/08 12:00:14;;;;;;;13.02;2.50;;;;;;;;;;4981951;28;20041;-82
2023/01/08 12:02:54;;;;;;;14.45;3.08;;;;;;;;;;4981217;28;20105;-84
2023/01/08 12:05:27;;;;;;;10.23;3.40;;;;;;;;;;4982099;28;20039;-84
2023/01/08 12:07:53;;;;;;;8.25;3.40;;;;;;;;;;4985070;28;20042;-85
2023/01/08 12:10:30;;;;;;;10.80;3.55;;;;;;;;;;4982151;28;20053;-82
2023/01/08 12:12:56;;;;;;;10.73;3.63;;;;;;;;;;4982249;28;20487;-83
2023/01/08 12:15:32;;;;;;;10.52;4.32;;;;;;;;;;4985098;28;20387;-82
2023/01/08 12:18:04;;;;;;;11.75;3.55;;;;;;;;;;4969617;28;20463;-82
2023/01/08 12:20:47;;;;;;;10.30;4.68;;;;;;;;;;4985809;28;20364;-82
2023/01/08 12:23:31;;;;;;;10.55;3.20;;;;;;;;;;4987394;28;20104;-82
2023/01/08 12:26:06;;;;;;;7.00;3.53;;;;;;;;;;4996576;28;20037;-83
2023/01/08 12:28:39;;;;;;;8.27;2.80;;;;;;;;;;5000198;28;20058;-83
2023/01/08 12:31:26;;;;;;;13.93;3.10;;;;;;;;;;4982797;28;20026;-85
2023/01/08 12:33:54;;;;;;;8.27;2.78;;;;;;;;;;4985847;28;20130;-82
2023/01/08 12:36:32;;;;;;;5.30;2.67;;;;;;;;;;4988448;28;20034;-84
2023/01/08 12:39:02;;;;;;;9.05;3.08;;;;;;;;;;4983676;28;20026;-83
2023/01/08 12:41:30;;;;;;;11.52;3.30;;;;;;;;;;4996178;28;20030;-82
2023/01/08 12:44:04;;;;;;;10.55;2.88;;;;;;;;;;4991067;28;20145;-82
2023/01/08 12:46:34;;;;;;;9.75;3.60;;;;;;;;;;4986767;28;20053;-86
2023/01/08 12:49:01;;;;;;;10.52;2.78;;;;;;;;;;4985970;28;20035;-83
2023/01/08 12:51:37;;;;;;;11.50;2.83;;;;;;;;;;4979278;28;20030;-80
2023/01/08 12:54:06;;;;;;;10.95;2.78;;;;;;;;;;4989498;28;20117;-82
2023/01/08 12:56:41;;;;;;;9.32;2.55;;;;;;;;;;5000130;28;20034;-82
2023/01/08 12:59:08;;;;;;;6.95;2.60;;;;;;;;;;4987154;28;20063;-81
2023/01/08 13:01:50;;;;;;;8.10;2.80;;;;;;;;;;4989007;28;20102;-80
2023/01/08 13:04:16;;;;;;;6.30;2.30;;;;;;;;;;4989931;28;20113;-81
2023/01/08 13:06:50;;;;;;;6.38;2.20;;;;;;;;;;4989128;28;20117;-82
2023/01/08 13:09:21;;;;;;;11.13;2.33;;;;;;;;;;4989031;28;20033;-83
2023/01/08 13:11:50;;;;;;;10.02;2.45;;;;;;;;;;4990013;28;20065;-81
2023/01/08 13:14:17;;;;;;;8.45;2.92;;;;;;;;;;4986589;28;20053;-82
2023/01/08 13:16:44;;;;;;;7.15;2.08;;;;;;;;;;4990200;28;20042;-80
2023/01/08 13:19:27;;;;;;;9.98;2.10;;;;;;;;;;4989732;28;20136;-83
2023/01/08 13:21:54;;;;;;;6.75;1.80;;;;;;;;;;4987490;28;20076;-86
2023/01/08 13:24:21;;;;;;;5.55;1.80;;;;;;;;;;4987773;28;20022;-82
2023/01/08 13:26:48;;;;;;;11.70;2.13;;;;;;;;;;4988741;28;20125;-82
2023/01/08 13:29:25;;;;;;;9.25;2.30;;;;;;;;;;4985792;28;20034;-82
2023/01/08 13:31:51;;;;;;;7.18;1.90;;;;;;;;;;4986733;28;20042;-81
2023/01/08 13:34:19;;;;;;;6.18;1.65;;;;;;;;;;4987508;28;20141;-81
2023/01/08 13:36:54;;;;;;;6.53;1.92;;;;;;;;;;4987851;28;20057;-81
2023/01/08 13:39:24;;;;;;;5.28;1.90;;;;;;;;;;5000389;28;20066;-83
2023/01/08 13:41:58;;;;;;;6.43;1.83;;;;;;;;;;4987273;28;20033;-80
2023/01/08 13:44:29;;;;;;;10.35;1.92;;;;;;;;;;5000867;28;20025;-85
2023/01/08 13:46:57;;;;;;;8.82;2.15;;;;;;;;;;4999340;28;20110;-84
2023/01/08 13:49:27;;;;;;;10.32;2.03;;;;;;;;;;4994078;28;20030;-83
2023/01/08 13:51:53;;;;;;;6.97;1.80;;;;;;;;;;4990839;28;20030;-78
2023/01/08 13:54:26;;;;;;;6.35;2.03;;;;;;;;;;4988197;28;20069;-81
2023/01/08 13:56:54;;;;;;;8.15;1.83;;;;;;;;;;4989429;28;20042;-80
2023/01/08 13:59:27;;;;;;;15.23;2.80;;;;;;;;;;4986511;28;20070;-82
2023/01/08 14:01:58;;;;;;;5.00;1.45;;;;;;;;;;4989818;28;20030;-82
2023/01/08 14:04:25;;;;;;;22.48;3.03;;;;;;;;;;4986639;28;20046;-81
2023/01/08 14:06:51;;;;;;;10.52;1.98;;;;;;;;;;4990570;28;20041;-81
2023/01/08 14:09:26;;;;;;;7.22;1.48;;;;;;;;;;4986645;28;20034;-79
2023/01/08 14:11:57;;;;;;;8.30;1.65;;;;;;;;;;4988467;28;20041;-82
2023/01/08 14:14:24;;;;;;;5.60;1.40;;;;;;;;;;4989755;28;20177;-80
2023/01/08 14:16:51;;;;;;;14.43;2.00;;;;;;;;;;4986407;28;20125;-78
2023/01/08 14:19:19;;;;;;;8.70;1.50;;;;;;;;;;4986429;28;20422;-79
2023/01/08 14:22:05;;;;;;;5.43;1.77;;;;;;;;;;4988032;28;20026;-79
2023/01/08 14:24:33;;;;;;;7.82;1.77;;;;;;;;;;4998698;28;20046;-78
2023/01/08 14:27:00;;;;;;;9.90;2.20;;;;;;;;;;5001988;28;20485;-78
2023/01/08 14:29:28;;;;;;;8.98;2.47;;;;;;;;;;4984446;28;20014;-77
2023/01/08 14:31:56;;;;;;;5.43;2.03;;;;;;;;;;4999449;28;20049;-77
2023/01/08 14:34:24;;;;;;;8.43;1.67;;;;;;;;;;5005910;28;20053;-78
2023/01/08 14:36:51;;;;;;;9.00;2.17;;;;;;;;;;4991031;28;20040;-79
2023/01/08 14:39:24;;;;;;;8.18;1.80;;;;;;;;;;4995651;28;20116;-80
2023/01/08 14:44:38;;;;;;;7.95;1.80;;;;;;;;;;4995217;28;20390;-79
2023/01/08 14:47:05;;;;;;;8.10;1.70;;;;;;;;;;4995609;28;20057;-79